sensor_id;sensor_type;location;lat;lon;timestamp;pressure;altitude;pressure_sealevel;temperature;humidity
48035;BME280;33812;46.480;6.834;2022-10-16T00:03:15;93758.50;;;22.84;47.42
48035;BME280;33812;46.480;6.834;2022-10-16T00:07:25;93756.94;;;22.82;47.34
48035;BME280;33812;46.480;6.834;2022-10-16T00:11:29;93759.09;;;22.65;46.25
48035;BME280;33812;46.480;6.834;2022-10-16T00:15:39;93743.72;;;22.64;47.24
48035;BME280;33812;46.480;6.834;2022-10-16T00:19:44;93753.44;;;22.69;47.41
48035;BME280;33812;46.480;6.834;2022-10-16T00:23:46;93744.69;;;22.70;47.30
48035;BME280;33812;46.480;6.834;2022-10-16T00:27:51;93744.94;;;22.63;46.79
48035;BME280;33812;46.480;6.834;2022-10-16T00:31:53;93751.13;;;22.67;46.78
48035;BME280;33812;46.480;6.834;2022-10-16T00:35:58;93753.91;;;22.67;46.92
48035;BME280;33812;46.480;6.834;2022-10-16T00:40:03;93755.78;;;22.70;46.28
48035;BME280;33812;46.480;6.834;2022-10-16T00:48:24;93749.31;;;22.74;46.34
48035;BME280;33812;46.480;6.834;2022-10-16T00:52:28;93754.81;;;22.64;46.33
48035;BME280;33812;46.480;6.834;2022-10-16T00:56:31;93750.09;;;22.74;46.78
48035;BME280;33812;46.480;6.834;2022-10-16T01:00:34;93753.31;;;22.73;46.50
48035;BME280;33812;46.480;6.834;2022-10-16T01:04:36;93748.13;;;22.75;46.26
48035;BME280;33812;46.480;6.834;2022-10-16T01:08:47;93747.78;;;22.73;46.27
48035;BME280;33812;46.480;6.834;2022-10-16T01:12:54;93740.09;;;22.77;46.53
48035;BME280;33812;46.480;6.834;2022-10-16T01:17:00;93738.56;;;22.76;46.16
48035;BME280;33812;46.480;6.834;2022-10-16T01:21:08;93739.47;;;22.73;45.90
48035;BME280;33812;46.480;6.834;2022-10-16T01:25:19;93735.91;;;22.72;46.02
48035;BME280;33812;46.480;6.834;2022-10-16T01:29:39;93744.56;;;22.74;45.87
48035;BME280;33812;46.480;6.834;2022-10-16T01:33:58;93731.50;;;22.75;46.62
48035;BME280;33812;46.480;6.834;2022-10-16T01:38:03;93737.03;;;22.75;45.91
48035;BME280;33812;46.480;6.834;2022-10-16T01:42:12;93741.91;;;22.70;46.27
48035;BME280;33812;46.480;6.834;2022-10-16T01:46:19;93746.25;;;22.58;45.02
48035;BME280;33812;46.480;6.834;2022-10-16T01:50:27;93752.25;;;22.57;46.23
48035;BME280;33812;46.480;6.834;2022-10-16T02:03:06;93765.72;;;22.68;46.12
48035;BME280;33812;46.480;6.834;2022-10-16T02:07:09;93762.09;;;22.71;45.79
48035;BME280;33812;46.480;6.834;2022-10-16T02:11:17;93770.97;;;22.53;45.16
48035;BME280;33812;46.480;6.834;2022-10-16T02:15:21;93770.06;;;22.69;46.87
48035;BME280;33812;46.480;6.834;2022-10-16T02:19:28;93765.03;;;22.77;45.72
48035;BME280;33812;46.480;6.834;2022-10-16T02:23:33;93779.81;;;22.61;45.89
48035;BME280;33812;46.480;6.834;2022-10-16T02:27:39;93772.19;;;22.65;45.70
48035;BME280;33812;46.480;6.834;2022-10-16T02:31:43;93762.34;;;22.64;46.17
48035;BME280;33812;46.480;6.834;2022-10-16T02:35:49;93756.78;;;22.64;46.54
48035;BME280;33812;46.480;6.834;2022-10-16T02:39:53;93754.81;;;22.64;46.12
48035;BME280;33812;46.480;6.834;2022-10-16T02:43:55;93751.47;;;22.56;44.49
48035;BME280;33812;46.480;6.834;2022-10-16T02:47:56;93750.69;;;22.56;45.76
48035;BME280;33812;46.480;6.834;2022-10-16T02:56:13;93752.03;;;22.64;45.58
48035;BME280;33812;46.480;6.834;2022-10-16T03:00:17;93759.78;;;22.69;46.03
48035;BME280;33812;46.480;6.834;2022-10-16T03:08:34;93768.88;;;22.57;45.41
48035;BME280;33812;46.480;6.834;2022-10-16T03:12:37;93771.19;;;22.58;45.32
48035;BME280;33812;46.480;6.834;2022-10-16T03:20:51;93758.41;;;22.61;45.00
48035;BME280;33812;46.480;6.834;2022-10-16T03:25:00;93754.56;;;22.58;45.02
48035;BME280;33812;46.480;6.834;2022-10-16T03:29:07;93754.03;;;22.64;45.03
48035;BME280;33812;46.480;6.834;2022-10-16T03:33:10;93762.34;;;22.64;44.77
48035;BME280;33812;46.480;6.834;2022-10-16T03:37:12;93768.88;;;22.57;44.62
48035;BME280;33812;46.480;6.834;2022-10-16T03:41:14;93783.59;;;22.54;44.87
48035;BME280;33812;46.480;6.834;2022-10-16T03:45:18;93778.38;;;22.56;45.15
48035;BME280;33812;46.480;6.834;2022-10-16T03:49:21;93793.47;;;22.55;44.03
48035;BME280;33812;46.480;6.834;2022-10-16T03:53:23;93802.34;;;22.50;45.09
48035;BME280;33812;46.480;6.834;2022-10-16T03:57:30;93819.97;;;22.43;44.99
48035;BME280;33812;46.480;6.834;2022-10-16T04:01:44;93813.19;;;22.57;45.25
48035;BME280;33812;46.480;6.834;2022-10-16T04:05:46;93809.88;;;22.62;45.91
48035;BME280;33812;46.480;6.834;2022-10-16T04:09:48;93810.06;;;22.68;44.30
48035;BME280;33812;46.480;6.834;2022-10-16T04:13:52;93812.63;;;22.62;45.10
48035;BME280;33812;46.480;6.834;2022-10-16T04:17:58;93804.34;;;22.62;45.43
48035;BME280;33812;46.480;6.834;2022-10-16T04:22:00;93810.97;;;22.65;44.93
48035;BME280;33812;46.480;6.834;2022-10-16T04:26:08;93807.63;;;22.70;44.60
48035;BME280;33812;46.480;6.834;2022-10-16T04:30:12;93804.88;;;22.57;44.70
48035;BME280;33812;46.480;6.834;2022-10-16T04:34:18;93810.75;;;22.59;44.78
48035;BME280;33812;46.480;6.834;2022-10-16T04:38:20;93808.41;;;22.57;44.37
48035;BME280;33812;46.480;6.834;2022-10-16T04:42:22;93811.28;;;22.67;44.83
48035;BME280;33812;46.480;6.834;2022-10-16T04:46:24;93808.19;;;22.65;44.31
48035;BME280;33812;46.480;6.834;2022-10-16T04:50:27;93818.19;;;22.62;44.37
48035;BME280;33812;46.480;6.834;2022-10-16T04:54:31;93823.34;;;22.60;45.37
48035;BME280;33812;46.480;6.834;2022-10-16T04:58:33;93824.47;;;22.76;46.15
48035;BME280;33812;46.480;6.834;2022-10-16T05:02:35;93823.31;;;22.86;45.94
48035;BME280;33812;46.480;6.834;2022-10-16T05:06:38;93815.22;;;22.92;46.06
48035;BME280;33812;46.480;6.834;2022-10-16T05:10:40;93815.25;;;22.79;44.13
48035;BME280;33812;46.480;6.834;2022-10-16T05:14:42;93822.72;;;22.69;43.32
48035;BME280;33812;46.480;6.834;2022-10-16T05:18:44;93814.84;;;22.67;45.18
48035;BME280;33812;46.480;6.834;2022-10-16T05:22:47;93812.63;;;22.62;43.24
48035;BME280;33812;46.480;6.834;2022-10-16T05:26:48;93809.50;;;22.60;43.54
48035;BME280;33812;46.480;6.834;2022-10-16T05:30:52;93797.88;;;22.65;44.19
48035;BME280;33812;46.480;6.834;2022-10-16T05:34:53;93797.09;;;22.78;44.31
48035;BME280;33812;46.480;6.834;2022-10-16T05:38:56;93800.34;;;22.50;42.45
48035;BME280;33812;46.480;6.834;2022-10-16T05:42:58;93785.13;;;22.68;43.31
48035;BME280;33812;46.480;6.834;2022-10-16T05:46:59;93789.69;;;22.62;43.35
48035;BME280;33812;46.480;6.834;2022-10-16T05:51:02;93797.56;;;22.63;43.12
48035;BME280;33812;46.480;6.834;2022-10-16T05:55:07;93799.44;;;22.66;43.80
48035;BME280;33812;46.480;6.834;2022-10-16T05:59:09;93793.78;;;22.70;44.83
48035;BME280;33812;46.480;6.834;2022-10-16T06:03:10;93797.56;;;22.63;43.54
48035;BME280;33812;46.480;6.834;2022-10-16T06:07:12;93803.97;;;22.60;43.24
48035;BME280;33812;46.480;6.834;2022-10-16T06:11:15;93822.91;;;22.49;43.06
48035;BME280;33812;46.480;6.834;2022-10-16T06:15:18;93822.25;;;22.57;43.71
48035;BME280;33812;46.480;6.834;2022-10-16T06:19:20;93821.94;;;22.55;44.79
48035;BME280;33812;46.480;6.834;2022-10-16T06:23:23;93833.78;;;22.56;43.42
48035;BME280;33812;46.480;6.834;2022-10-16T06:27:26;93837.66;;;22.58;42.41
48035;BME280;33812;46.480;6.834;2022-10-16T06:31:27;93840.09;;;22.69;45.28
48035;BME280;33812;46.480;6.834;2022-10-16T06:35:31;93860.81;;;22.65;43.97
48035;BME280;33812;46.480;6.834;2022-10-16T06:39:33;93861.72;;;22.62;43.96
48035;BME280;33812;46.480;6.834;2022-10-16T06:43:35;93873.31;;;22.56;43.27
48035;BME280;33812;46.480;6.834;2022-10-16T06:47:37;93870.03;;;22.62;44.59
48035;BME280;33812;46.480;6.834;2022-10-16T06:51:38;93876.69;;;22.64;44.44
48035;BME280;33812;46.480;6.834;2022-10-16T06:55:41;93884.66;;;22.62;44.52
48035;BME280;33812;46.480;6.834;2022-10-16T06:59:44;93884.41;;;22.56;42.06
48035;BME280;33812;46.480;6.834;2022-10-16T07:03:45;93886.31;;;22.73;44.67
48035;BME280;33812;46.480;6.834;2022-10-16T07:07:47;93898.59;;;22.85;43.98
48035;BME280;33812;46.480;6.834;2022-10-16T07:11:48;93892.13;;;22.88;44.42
48035;BME280;33812;46.480;6.834;2022-10-16T07:15:51;93893.44;;;22.96;44.80
48035;BME280;33812;46.480;6.834;2022-10-16T07:19:52;93907.19;;;23.00;44.90
48035;BME280;33812;46.480;6.834;2022-10-16T07:23:56;93909.84;;;23.03;44.81
48035;BME280;33812;46.480;6.834;2022-10-16T07:27:57;93910.63;;;23.04;43.68
48035;BME280;33812;46.480;6.834;2022-10-16T07:32:01;93916.63;;;23.02;43.89
48035;BME280;33812;46.480;6.834;2022-10-16T07:36:02;93920.72;;;22.98;43.96
48035;BME280;33812;46.480;6.834;2022-10-16T07:40:05;93924.25;;;22.98;43.49
48035;BME280;33812;46.480;6.834;2022-10-16T07:44:06;93930.47;;;23.02;44.05
48035;BME280;33812;46.480;6.834;2022-10-16T07:48:10;93934.72;;;22.94;43.41
48035;BME280;33812;46.480;6.834;2022-10-16T07:52:11;93942.56;;;22.96;42.40
48035;BME280;33812;46.480;6.834;2022-10-16T07:56:13;93945.88;;;23.03;43.76
48035;BME280;33812;46.480;6.834;2022-10-16T08:00:14;93959.16;;;23.09;42.92
48035;BME280;33812;46.480;6.834;2022-10-16T08:04:17;93950.75;;;23.12;42.96
48035;BME280;33812;46.480;6.834;2022-10-16T08:08:19;93957.50;;;23.11;42.96
48035;BME280;33812;46.480;6.834;2022-10-16T08:12:20;93962.16;;;23.14;44.41
48035;BME280;33812;46.480;6.834;2022-10-16T08:16:23;93973.69;;;23.13;42.59
48035;BME280;33812;46.480;6.834;2022-10-16T08:20:27;93974.59;;;23.10;43.26
48035;BME280;33812;46.480;6.834;2022-10-16T08:24:29;93976.59;;;23.09;42.64
48035;BME280;33812;46.480;6.834;2022-10-16T08:28:32;93976.81;;;23.15;44.07
48035;BME280;33812;46.480;6.834;2022-10-16T08:32:34;93986.22;;;23.17;44.21
48035;BME280;33812;46.480;6.834;2022-10-16T08:36:38;93978.78;;;23.14;43.72
48035;BME280;33812;46.480;6.834;2022-10-16T08:40:41;93980.66;;;23.17;43.70
48035;BME280;33812;46.480;6.834;2022-10-16T08:44:53;93989.31;;;23.19;43.36
48035;BME280;33812;46.480;6.834;2022-10-16T08:49:01;93990.09;;;23.20;43.54
48035;BME280;33812;46.480;6.834;2022-10-16T08:53:05;93990.84;;;23.21;43.40
48035;BME280;33812;46.480;6.834;2022-10-16T08:57:08;93989.66;;;23.22;42.35
48035;BME280;33812;46.480;6.834;2022-10-16T09:01:12;93986.44;;;23.23;43.14
48035;BME280;33812;46.480;6.834;2022-10-16T09:05:18;93990.00;;;23.24;43.24
48035;BME280;33812;46.480;6.834;2022-10-16T09:09:28;93997.53;;;23.23;43.17
48035;BME280;33812;46.480;6.834;2022-10-16T09:13:34;93991.53;;;23.25;43.09
48035;BME280;33812;46.480;6.834;2022-10-16T09:17:39;93998.63;;;23.26;42.70
48035;BME280;33812;46.480;6.834;2022-10-16T09:21:47;93991.88;;;23.27;42.34
48035;BME280;33812;46.480;6.834;2022-10-16T09:25:49;93998.94;;;23.28;42.35
48035;BME280;33812;46.480;6.834;2022-10-16T09:29:51;93998.50;;;23.29;42.96
48035;BME280;33812;46.480;6.834;2022-10-16T09:33:53;94000.81;;;23.31;43.88
48035;BME280;33812;46.480;6.834;2022-10-16T09:37:56;94000.81;;;23.31;43.79
48035;BME280;33812;46.480;6.834;2022-10-16T09:41:59;93998.03;;;23.31;43.62
48035;BME280;33812;46.480;6.834;2022-10-16T09:46:02;93985.75;;;23.32;43.49
48035;BME280;33812;46.480;6.834;2022-10-16T09:50:05;93990.06;;;23.33;43.21
48035;BME280;33812;46.480;6.834;2022-10-16T09:54:20;93988.84;;;23.34;43.06
48035;BME280;33812;46.480;6.834;2022-10-16T09:58:23;93995.94;;;23.35;42.54
48035;BME280;33812;46.480;6.834;2022-10-16T10:02:27;93987.97;;;23.37;42.73
48035;BME280;33812;46.480;6.834;2022-10-16T10:06:31;93997.81;;;23.38;42.75
48035;BME280;33812;46.480;6.834;2022-10-16T10:10:36;94003.69;;;23.40;42.69
48035;BME280;33812;46.480;6.834;2022-10-16T10:14:42;94002.50;;;23.41;41.39
48035;BME280;33812;46.480;6.834;2022-10-16T10:18:45;94003.28;;;23.42;41.01
48035;BME280;33812;46.480;6.834;2022-10-16T10:22:47;94003.59;;;23.44;41.26
48035;BME280;33812;46.480;6.834;2022-10-16T10:26:54;94015.47;;;23.45;41.84
48035;BME280;33812;46.480;6.834;2022-10-16T10:31:00;94010.69;;;23.45;41.83
48035;BME280;33812;46.480;6.834;2022-10-16T10:35:07;94001.16;;;23.46;42.12
48035;BME280;33812;46.480;6.834;2022-10-16T10:39:15;94011.47;;;23.46;41.53
48035;BME280;33812;46.480;6.834;2022-10-16T10:43:29;94001.16;;;23.46;41.53
48035;BME280;33812;46.480;6.834;2022-10-16T10:47:39;94003.50;;;23.48;41.41
48035;BME280;33812;46.480;6.834;2022-10-16T10:51:44;93995.94;;;23.48;41.92
48035;BME280;33812;46.480;6.834;2022-10-16T10:55:51;93992.72;;;23.50;41.64
48035;BME280;33812;46.480;6.834;2022-10-16T10:59:58;93993.47;;;23.50;41.20
48035;BME280;33812;46.480;6.834;2022-10-16T11:04:11;93994.25;;;23.51;41.01
48035;BME280;33812;46.480;6.834;2022-10-16T11:08:18;93997.03;;;23.51;41.16
48035;BME280;33812;46.480;6.834;2022-10-16T11:12:22;93988.25;;;23.52;41.36
48035;BME280;33812;46.480;6.834;2022-10-16T11:16:26;93988.25;;;23.52;41.09
48035;BME280;33812;46.480;6.834;2022-10-16T11:20:31;93984.28;;;23.53;41.35
48035;BME280;33812;46.480;6.834;2022-10-16T11:24:35;93979.50;;;23.54;41.22
48035;BME280;33812;46.480;6.834;2022-10-16T11:28:39;93983.06;;;23.54;41.27
48035;BME280;33812;46.480;6.834;2022-10-16T11:32:49;93977.03;;;23.56;41.46
48035;BME280;33812;46.480;6.834;2022-10-16T11:36:53;93975.50;;;23.55;41.36
48035;BME280;33812;46.480;6.834;2022-10-16T11:40:58;93975.84;;;23.57;41.60
48035;BME280;33812;46.480;6.834;2022-10-16T11:45:02;93967.53;;;23.57;40.99
48035;BME280;33812;46.480;6.834;2022-10-16T11:49:10;93974.59;;;23.58;41.32
48035;BME280;33812;46.480;6.834;2022-10-16T11:53:20;93958.75;;;23.59;41.47
48035;BME280;33812;46.480;6.834;2022-10-16T11:57:23;93953.94;;;23.59;41.45
48035;BME280;33812;46.480;6.834;2022-10-16T12:01:28;93959.03;;;23.61;41.42
48035;BME280;33812;46.480;6.834;2022-10-16T12:05:35;93943.19;;;23.61;41.80
48035;BME280;33812;46.480;6.834;2022-10-16T12:09:41;93955.84;;;23.62;41.79
48035;BME280;33812;46.480;6.834;2022-10-16T12:13:43;93939.19;;;23.62;41.75
48035;BME280;33812;46.480;6.834;2022-10-16T12:17:48;93943.97;;;23.62;41.97
48035;BME280;33812;46.480;6.834;2022-10-16T12:21:50;93942.72;;;23.63;41.83
48035;BME280;33812;46.480;6.834;2022-10-16T12:25:55;93945.06;;;23.64;41.81
48035;BME280;33812;46.480;6.834;2022-10-16T12:29:58;93945.06;;;23.64;41.98
48035;BME280;33812;46.480;6.834;2022-10-16T12:34:01;93938.28;;;23.65;42.11
48035;BME280;33812;46.480;6.834;2022-10-16T12:38:07;93941.06;;;23.65;42.19
48035;BME280;33812;46.480;6.834;2022-10-16T12:46:38;93937.84;;;23.67;42.42
48035;BME280;33812;46.480;6.834;2022-10-16T12:50:40;93935.06;;;23.67;42.53
48035;BME280;33812;46.480;6.834;2022-10-16T12:54:42;93947.69;;;23.68;42.41
48035;BME280;33812;46.480;6.834;2022-10-16T12:58:56;93936.59;;;23.68;42.42
48035;BME280;33812;46.480;6.834;2022-10-16T13:07:22;93930.59;;;23.70;42.42
48035;BME280;33812;46.480;6.834;2022-10-16T13:11:33;93932.16;;;23.71;42.34
48035;BME280;33812;46.480;6.834;2022-10-16T13:15:47;93925.84;;;23.70;42.39
48035;BME280;33812;46.480;6.834;2022-10-16T13:19:54;93932.91;;;23.71;42.35
48035;BME280;33812;46.480;6.834;2022-10-16T13:24:05;93938.78;;;23.73;42.51
48035;BME280;33812;46.480;6.834;2022-10-16T13:28:10;93940.81;;;23.73;42.25
48035;BME280;33812;46.480;6.834;2022-10-16T13:32:14;93938.03;;;23.73;42.40
48035;BME280;33812;46.480;6.834;2022-10-16T13:36:19;93931.25;;;23.74;42.52
48035;BME280;33812;46.480;6.834;2022-10-16T13:40:23;93923.72;;;23.74;42.51
48035;BME280;33812;46.480;6.834;2022-10-16T13:44:25;93927.25;;;23.75;42.80
48035;BME280;33812;46.480;6.834;2022-10-16T13:48:27;93923.25;;;23.76;42.61
48035;BME280;33812;46.480;6.834;2022-10-16T13:52:29;93929.56;;;23.76;42.74
48035;BME280;33812;46.480;6.834;2022-10-16T13:56:32;93922.03;;;23.77;42.77
48035;BME280;33812;46.480;6.834;2022-10-16T14:00:34;93930.34;;;23.77;42.83
48035;BME280;33812;46.480;6.834;2022-10-16T14:04:37;93932.66;;;23.78;43.07
48035;BME280;33812;46.480;6.834;2022-10-16T14:08:41;93931.91;;;23.78;42.86
48035;BME280;33812;46.480;6.834;2022-10-16T14:12:45;93937.75;;;23.80;42.95
48035;BME280;33812;46.480;6.834;2022-10-16T14:16:55;93932.22;;;23.80;42.92
48035;BME280;33812;46.480;6.834;2022-10-16T14:21:02;93935.00;;;23.80;43.14
48035;BME280;33812;46.480;6.834;2022-10-16T14:25:15;93938.09;;;23.82;43.26
48035;BME280;33812;46.480;6.834;2022-10-16T14:29:23;93934.56;;;23.82;43.20
48035;BME280;33812;46.480;6.834;2022-10-16T14:33:31;93941.66;;;23.83;43.12
48035;BME280;33812;46.480;6.834;2022-10-16T14:37:34;93940.41;;;23.84;43.21
48035;BME280;33812;46.480;6.834;2022-10-16T14:41:40;93946.75;;;23.84;43.26
48035;BME280;33812;46.480;6.834;2022-10-16T14:45:49;93950.31;;;23.85;43.53
48035;BME280;33812;46.480;6.834;2022-10-16T14:49:52;93942.72;;;23.85;43.17
48035;BME280;33812;46.480;6.834;2022-10-16T14:53:56;93945.50;;;23.85;43.37
48035;BME280;33812;46.480;6.834;2022-10-16T14:57:57;93952.63;;;23.86;43.54
48035;BME280;33812;46.480;6.834;2022-10-16T15:02:01;93942.72;;;23.85;43.32
48035;BME280;33812;46.480;6.834;2022-10-16T15:06:16;93952.63;;;23.86;43.35
48035;BME280;33812;46.480;6.834;2022-10-16T15:10:18;93949.84;;;23.86;43.45
48035;BME280;33812;46.480;6.834;2022-10-16T15:14:19;93956.94;;;23.87;43.31
48035;BME280;33812;46.480;6.834;2022-10-16T15:18:22;93957.72;;;23.88;43.35
48035;BME280;33812;46.480;6.834;2022-10-16T15:22:26;93964.06;;;23.88;43.50
48035;BME280;33812;46.480;6.834;2022-10-16T15:26:28;93967.59;;;23.89;43.56
48035;BME280;33812;46.480;6.834;2022-10-16T15:30:31;93975.91;;;23.89;43.28
48035;BME280;33812;46.480;6.834;2022-10-16T15:34:34;93974.69;;;23.90;44.07
48035;BME280;33812;46.480;6.834;2022-10-16T15:38:35;93964.69;;;23.93;44.08
48035;BME280;33812;46.480;6.834;2022-10-16T15:42:38;93967.44;;;23.93;44.14
48035;BME280;33812;46.480;6.834;2022-10-16T15:46:40;93967.44;;;23.93;43.94
48035;BME280;33812;46.480;6.834;2022-10-16T15:50:44;93979.00;;;23.91;44.07
48035;BME280;33812;46.480;6.834;2022-10-16T15:54:46;93985.22;;;23.95;44.02
48035;BME280;33812;46.480;6.834;2022-10-16T15:58:47;93983.66;;;23.94;43.77
48035;BME280;33812;46.480;6.834;2022-10-16T16:02:49;93990.00;;;23.95;44.26
48035;BME280;33812;46.480;6.834;2022-10-16T16:06:52;93996.31;;;23.95;44.56
48035;BME280;33812;46.480;6.834;2022-10-16T16:10:57;93989.22;;;23.94;44.11
48035;BME280;33812;46.480;6.834;2022-10-16T16:14:59;93996.78;;;23.94;43.92
48035;BME280;33812;46.480;6.834;2022-10-16T16:19:02;93993.22;;;23.93;43.98
48035;BME280;33812;46.480;6.834;2022-10-16T16:23:06;93999.56;;;23.94;43.89
48035;BME280;33812;46.480;6.834;2022-10-16T16:27:08;93999.38;;;23.75;41.73
48035;BME280;33812;46.480;6.834;2022-10-16T16:31:09;93997.75;;;23.64;41.55
48035;BME280;33812;46.480;6.834;2022-10-16T16:35:11;93999.91;;;23.60;41.10
48035;BME280;33812;46.480;6.834;2022-10-16T16:39:14;94009.19;;;23.66;40.82
48035;BME280;33812;46.480;6.834;2022-10-16T16:43:15;94009.06;;;23.70;41.46
48035;BME280;33812;46.480;6.834;2022-10-16T16:47:17;94010.88;;;23.64;41.58
48035;BME280;33812;46.480;6.834;2022-10-16T16:51:18;94012.38;;;23.78;42.02
48035;BME280;33812;46.480;6.834;2022-10-16T16:55:22;94024.44;;;23.84;42.22
48035;BME280;33812;46.480;6.834;2022-10-16T16:59:25;94027.88;;;23.88;42.60
48035;BME280;33812;46.480;6.834;2022-10-16T17:03:27;94026.66;;;23.89;42.74
48035;BME280;33812;46.480;6.834;2022-10-16T17:07:30;94033.44;;;23.88;43.15
48035;BME280;33812;46.480;6.834;2022-10-16T17:11:34;94040.84;;;23.91;43.39
48035;BME280;33812;46.480;6.834;2022-10-16T17:15:41;94043.63;;;23.91;43.19
48035;BME280;33812;46.480;6.834;2022-10-16T17:19:48;94065.06;;;23.91;42.63
48035;BME280;33812;46.480;6.834;2022-10-16T17:23:50;94068.63;;;23.91;43.22
48035;BME280;33812;46.480;6.834;2022-10-16T17:27:54;94081.72;;;23.91;42.95
48035;BME280;33812;46.480;6.834;2022-10-16T17:31:56;94088.03;;;23.91;43.22
48035;BME280;33812;46.480;6.834;2022-10-16T17:36:04;94094.38;;;23.92;43.40
48035;BME280;33812;46.480;6.834;2022-10-16T17:40:07;94104.25;;;23.93;43.82
48035;BME280;33812;46.480;6.834;2022-10-16T17:44:11;94097.91;;;23.93;43.71
48035;BME280;33812;46.480;6.834;2022-10-16T17:48:19;94111.78;;;23.93;43.83
48035;BME280;33812;46.480;6.834;2022-10-16T17:52:21;94119.66;;;23.94;43.82
48035;BME280;33812;46.480;6.834;2022-10-16T17:56:23;94121.69;;;23.94;43.75
48035;BME280;33812;46.480;6.834;2022-10-16T18:00:27;94130.03;;;23.94;43.48
48035;BME280;33812;46.480;6.834;2022-10-16T18:04:28;94128.78;;;23.95;43.77
48035;BME280;33812;46.480;6.834;2022-10-16T18:08:30;94133.56;;;23.94;42.87
48035;BME280;33812;46.480;6.834;2022-10-16T18:12:32;94135.56;;;23.94;43.12
48035;BME280;33812;46.480;6.834;2022-10-16T18:16:35;94142.66;;;23.95;43.49
48035;BME280;33812;46.480;6.834;2022-10-16T18:20:38;94135.13;;;23.95;43.69
48035;BME280;33812;46.480;6.834;2022-10-16T18:24:40;94136.66;;;23.96;43.38
48035;BME280;33812;46.480;6.834;2022-10-16T18:28:41;94138.66;;;23.96;43.24
48035;BME280;33812;46.480;6.834;2022-10-16T18:32:45;94136.66;;;23.96;43.63
48035;BME280;33812;46.480;6.834;2022-10-16T18:36:47;94137.91;;;23.95;43.09
48035;BME280;33812;46.480;6.834;2022-10-16T18:40:49;94144.19;;;23.96;42.87
48035;BME280;33812;46.480;6.834;2022-10-16T18:48:57;94154.44;;;23.99;43.25
48035;BME280;33812;46.480;6.834;2022-10-16T18:53:00;94143.34;;;23.99;42.78
48035;BME280;33812;46.480;6.834;2022-10-16T18:57:03;94142.53;;;23.98;42.61
48035;BME280;33812;46.480;6.834;2022-10-16T19:01:05;94155.19;;;23.99;43.19
48035;BME280;33812;46.480;6.834;2022-10-16T19:05:08;94160.00;;;23.99;42.87
48035;BME280;33812;46.480;6.834;2022-10-16T19:09:10;94158.53;;;23.94;42.57
48035;BME280;33812;46.480;6.834;2022-10-16T19:13:13;94166.09;;;23.94;43.19
48035;BME280;33812;46.480;6.834;2022-10-16T19:17:15;94161.00;;;23.92;43.41
48035;BME280;33812;46.480;6.834;2022-10-16T19:21:20;94166.56;;;23.92;43.54
48035;BME280;33812;46.480;6.834;2022-10-16T19:25:23;94176.53;;;23.89;43.67
48035;BME280;33812;46.480;6.834;2022-10-16T19:29:27;94184.53;;;23.87;44.25
48035;BME280;33812;46.480;6.834;2022-10-16T19:33:30;94183.78;;;23.87;44.44
48035;BME280;33812;46.480;6.834;2022-10-16T19:37:33;94194.31;;;23.92;45.36
48035;BME280;33812;46.480;6.834;2022-10-16T19:41:35;94196.63;;;23.94;45.19
48035;BME280;33812;46.480;6.834;2022-10-16T19:45:36;94206.28;;;23.89;44.65
48035;BME280;33812;46.480;6.834;2022-10-16T19:49:40;94209.16;;;23.98;45.47
48035;BME280;33812;46.480;6.834;2022-10-16T19:53:45;94207.06;;;23.76;44.17
48035;BME280;33812;46.480;6.834;2022-10-16T19:57:47;94221.50;;;23.84;44.81
48035;BME280;33812;46.480;6.834;2022-10-16T20:01:53;94222.81;;;23.93;45.05
48035;BME280;33812;46.480;6.834;2022-10-16T20:05:56;94225.59;;;23.93;45.40
48035;BME280;33812;46.480;6.834;2022-10-16T20:10:07;94227.47;;;23.96;44.84
48035;BME280;33812;46.480;6.834;2022-10-16T20:14:09;94225.06;;;23.85;44.27
48035;BME280;33812;46.480;6.834;2022-10-16T20:18:15;94224.97;;;23.88;44.61
48035;BME280;33812;46.480;6.834;2022-10-16T20:22:16;94231.38;;;23.85;44.65
48035;BME280;33812;46.480;6.834;2022-10-16T20:26:20;94234.16;;;23.85;44.59
48035;BME280;33812;46.480;6.834;2022-10-16T20:30:23;94245.25;;;23.85;44.30
48035;BME280;33812;46.480;6.834;2022-10-16T20:34:24;94243.38;;;23.82;44.25
48035;BME280;33812;46.480;6.834;2022-10-16T20:38:26;94245.41;;;23.82;44.57
48035;BME280;33812;46.480;6.834;2022-10-16T20:42:33;94241.03;;;23.81;44.32
48035;BME280;33812;46.480;6.834;2022-10-16T20:46:35;94243.38;;;23.82;44.86
48035;BME280;33812;46.480;6.834;2022-10-16T20:50:36;94243.16;;;23.89;45.48
48035;BME280;33812;46.480;6.834;2022-10-16T20:54:38;94238.06;;;23.88;44.70
48035;BME280;33812;46.480;6.834;2022-10-16T20:58:41;94238.38;;;23.77;44.68
48035;BME280;33812;46.480;6.834;2022-10-16T21:02:48;94240.72;;;23.78;45.67
48035;BME280;33812;46.480;6.834;2022-10-16T21:15:20;94246.38;;;23.88;45.49
48035;BME280;33812;46.480;6.834;2022-10-16T21:19:24;94257.91;;;23.73;43.94
48035;BME280;33812;46.480;6.834;2022-10-16T21:23:26;94255.47;;;23.75;45.50
48035;BME280;33812;46.480;6.834;2022-10-16T21:27:29;94254.38;;;23.86;45.52
48035;BME280;33812;46.480;6.834;2022-10-16T21:31:32;94248.72;;;23.89;45.36
48035;BME280;33812;46.480;6.834;2022-10-16T21:35:33;94252.69;;;23.75;43.80
48035;BME280;33812;46.480;6.834;2022-10-16T21:39:36;94266.38;;;23.83;44.69
48035;BME280;33812;46.480;6.834;2022-10-16T21:43:37;94266.59;;;23.75;43.65
48035;BME280;33812;46.480;6.834;2022-10-16T21:47:42;94268.56;;;23.75;43.13
48035;BME280;33812;46.480;6.834;2022-10-16T21:51:45;94275.13;;;23.68;44.05
48035;BME280;33812;46.480;6.834;2022-10-16T21:55:49;94271.91;;;23.70;44.07
48035;BME280;33812;46.480;6.834;2022-10-16T21:59:51;94271.91;;;23.70;43.99
48035;BME280;33812;46.480;6.834;2022-10-16T22:03:54;94272.91;;;23.76;43.81
48035;BME280;33812;46.480;6.834;2022-10-16T22:07:56;94266.34;;;23.70;43.32
48035;BME280;33812;46.480;6.834;2022-10-16T22:11:57;94276.34;;;23.67;43.38
48035;BME280;33812;46.480;6.834;2022-10-16T22:15:59;94274.03;;;23.65;42.16
48035;BME280;33812;46.480;6.834;2022-10-16T22:20:02;94269.56;;;23.68;42.76